createdAt,value
2023-02-19T00:00:08.013Z,11.24
2023-02-19T00:02:43.504Z,11.14
2023-02-19T00:05:12.160Z,11.17
2023-02-19T00:07:43.252Z,11.24
2023-02-19T00:10:11.814Z,11.08
2023-02-19T00:12:40.326Z,11.07
2023-02-19T00:15:09.317Z,11.22
2023-02-19T00:17:37.798Z,11.06
2023-02-19T00:20:07.098Z,11.10
2023-02-19T00:22:35.697Z,11.14
2023-02-19T00:25:06.100Z,11.03
2023-02-19T00:27:34.839Z,10.96
2023-02-19T00:30:03.421Z,10.87
2023-02-19T00:32:32.318Z,10.77
2023-02-19T00:35:02.405Z,10.77
2023-02-19T00:37:31.024Z,10.49
2023-02-19T00:39:59.561Z,10.51
2023-02-19T00:42:29.670Z,10.56
2023-02-19T00:44:58.190Z,10.55
2023-02-19T00:47:26.858Z,10.60
2023-02-19T00:49:55.525Z,10.51
2023-02-19T00:52:24.067Z,10.61
2023-02-19T00:54:52.784Z,10.52
2023-02-19T00:57:21.276Z,10.38
2023-02-19T00:59:51.124Z,10.45
2023-02-19T01:02:19.672Z,10.58
2023-02-19T01:04:48.162Z,10.60
2023-02-19T01:07:16.727Z,10.63
2023-02-19T01:09:46.151Z,10.54
2023-02-19T01:12:14.633Z,10.36
2023-02-19T01:14:43.186Z,10.53
2023-02-19T01:17:13.373Z,10.60
2023-02-19T01:19:41.950Z,10.58
2023-02-19T01:22:10.492Z,10.65
2023-02-19T01:24:38.924Z,10.57
2023-02-19T01:27:07.465Z,10.50
2023-02-19T01:29:36.002Z,10.55
2023-02-19T01:32:04.741Z,10.54
2023-02-19T01:34:34.703Z,10.58
2023-02-19T01:37:03.562Z,10.63
2023-02-19T01:39:32.461Z,10.62
2023-02-19T01:42:01.237Z,10.51
2023-02-19T01:45:25.381Z,10.51
2023-02-19T01:48:08.878Z,10.55
2023-02-19T01:50:47.290Z,10.60
2023-02-19T01:53:23.564Z,10.60
2023-02-19T01:55:58.860Z,10.63
2023-02-19T01:58:33.059Z,10.72
2023-02-19T02:01:05.966Z,10.64
2023-02-19T02:03:38.789Z,10.61
2023-02-19T02:06:20.143Z,10.56
2023-02-19T02:09:09.146Z,10.51
2023-02-19T02:11:39.845Z,10.38
2023-02-19T02:14:08.595Z,10.45
2023-02-19T02:16:53.700Z,10.25
2023-02-19T02:19:57.555Z,10.30
2023-02-19T02:22:33.757Z,10.29
2023-02-19T02:25:57.101Z,10.22
2023-02-19T02:29:03.308Z,10.37
2023-02-19T02:31:40.568Z,10.34
2023-02-19T02:34:15.948Z,10.32
2023-02-19T02:36:49.878Z,10.26
2023-02-19T02:39:24.866Z,10.13
2023-02-19T02:42:12.425Z,10.30
2023-02-19T02:45:02.968Z,10.39
2023-02-19T02:47:43.037Z,10.51
2023-02-19T02:50:24.702Z,10.54
2023-02-19T02:53:18.184Z,10.48
2023-02-19T02:55:53.127Z,10.34
2023-02-19T02:58:25.457Z,10.41
2023-02-19T03:01:19.984Z,10.40
2023-02-19T03:03:58.753Z,10.41
2023-02-19T03:06:34.643Z,10.35
2023-02-19T03:09:14.479Z,10.40
2023-02-19T03:12:09.282Z,10.32
2023-02-19T03:15:05.071Z,10.31
2023-02-19T03:17:58.245Z,10.38
2023-02-19T03:20:29.900Z,10.47
2023-02-19T03:23:03.080Z,10.51
2023-02-19T03:25:54.161Z,10.42
2023-02-19T03:28:54.976Z,10.58
2023-02-19T03:31:29.174Z,10.59
2023-02-19T03:34:06.748Z,10.55
2023-02-19T03:36:43.997Z,10.42
2023-02-19T03:39:18.640Z,10.31
2023-02-19T03:41:58.956Z,10.33
2023-02-19T03:44:39.727Z,10.35
2023-02-19T03:47:20.021Z,10.40
2023-02-19T03:49:56.345Z,10.38
2023-02-19T03:52:39.754Z,10.42
2023-02-19T03:55:17.729Z,10.30
2023-02-19T03:57:54.837Z,10.39
2023-02-19T04:00:31.919Z,10.35
2023-02-19T04:03:12.249Z,10.27
2023-02-19T04:05:48.213Z,10.30
2023-02-19T04:08:23.285Z,10.31
2023-02-19T04:11:01.488Z,10.30
2023-02-19T04:13:39.251Z,10.34
2023-02-19T04:16:13.335Z,10.27
2023-02-19T04:18:47.183Z,10.30
2023-02-19T04:21:17.110Z,10.28
2023-02-19T04:23:47.758Z,10.27
2023-02-19T04:26:19.011Z,10.38
2023-02-19T04:28:48.531Z,10.33
2023-02-19T04:31:17.270Z,10.39
2023-02-19T04:33:45.800Z,10.30
2023-02-19T04:36:14.266Z,10.37
2023-02-19T04:38:42.746Z,10.42
2023-02-19T04:41:12.990Z,10.34
2023-02-19T04:43:41.667Z,10.33
2023-02-19T04:46:10.250Z,10.32
2023-02-19T04:48:39.054Z,10.36
2023-02-19T04:51:09.124Z,10.26
2023-02-19T04:53:38.846Z,10.26
2023-02-19T04:56:09.275Z,10.27
2023-02-19T04:58:40.450Z,10.24
2023-02-19T05:01:10.417Z,10.29
2023-02-19T05:03:39.401Z,10.27
2023-02-19T05:06:11.652Z,10.15
2023-02-19T05:08:40.594Z,10.10
2023-02-19T05:11:12.375Z,10.05
2023-02-19T05:13:42.680Z,10.11
2023-02-19T05:16:16.165Z,10.10
2023-02-19T05:18:46.917Z,10.11
2023-02-19T05:21:16.635Z,10.02
2023-02-19T05:23:45.496Z,9.99
2023-02-19T05:26:18.127Z,9.94
2023-02-19T05:28:50.784Z,9.93
2023-02-19T05:31:20.508Z,9.96
2023-02-19T05:33:51.357Z,9.93
2023-02-19T05:36:22.466Z,10.03
2023-02-19T05:38:55.160Z,9.94
2023-02-19T05:41:26.190Z,9.88
2023-02-19T05:43:57.669Z,9.96
2023-02-19T05:46:29.275Z,9.95
2023-02-19T05:48:59.124Z,10.02
2023-02-19T05:51:28.888Z,10.02
2023-02-19T05:53:58.816Z,9.94
2023-02-19T05:56:33.866Z,10.07
2023-02-19T05:59:07.929Z,9.97
2023-02-19T06:01:37.649Z,9.88
2023-02-19T06:04:06.795Z,9.87
2023-02-19T06:06:35.315Z,9.81
2023-02-19T06:09:04.534Z,9.73
2023-02-19T06:11:33.161Z,9.85
2023-02-19T06:14:03.076Z,9.78
2023-02-19T06:16:33.645Z,9.80
2023-02-19T06:19:04.851Z,9.89
2023-02-19T06:21:33.426Z,9.94
2023-02-19T06:24:07.797Z,9.80
2023-02-19T06:26:36.846Z,9.85
2023-02-19T06:29:06.730Z,9.93
2023-02-19T06:31:35.476Z,9.90
2023-02-19T06:34:06.093Z,9.85
2023-02-19T06:36:34.851Z,9.93
2023-02-19T06:39:05.084Z,9.87
2023-02-19T06:41:34.124Z,9.78
2023-02-19T06:44:02.931Z,9.77
2023-02-19T06:46:33.083Z,9.80
2023-02-19T06:49:01.717Z,9.86
2023-02-19T06:51:31.865Z,9.87
2023-02-19T06:54:02.299Z,9.84
2023-02-19T06:56:33.432Z,9.74
2023-02-19T06:59:05.426Z,9.76
2023-02-19T07:01:36.896Z,9.82
2023-02-19T07:04:07.452Z,9.86
2023-02-19T07:06:37.588Z,9.73
2023-02-19T07:09:09.487Z,9.92
2023-02-19T07:11:40.776Z,9.91
2023-02-19T07:14:16.229Z,9.92
2023-02-19T07:16:47.406Z,9.89
2023-02-19T07:19:16.949Z,9.85
2023-02-19T07:21:45.704Z,10.03
2023-02-19T07:24:14.326Z,9.99
2023-02-19T07:26:42.932Z,9.96
2023-02-19T07:29:11.791Z,10.03
2023-02-19T07:31:40.561Z,9.97
2023-02-19T07:34:10.543Z,9.98
2023-02-19T07:36:39.266Z,9.92
2023-02-19T07:39:10.052Z,10.04
2023-02-19T07:41:38.848Z,10.17
2023-02-19T07:44:08.145Z,10.34
2023-02-19T07:46:36.835Z,10.32
2023-02-19T07:49:07.225Z,10.25
2023-02-19T07:51:39.839Z,10.33
2023-02-19T07:54:08.467Z,10.39
2023-02-19T07:56:37.074Z,10.61
2023-02-19T07:59:06.272Z,10.47
2023-02-19T08:01:52.668Z,10.49
2023-02-19T08:04:21.399Z,10.49
2023-02-19T08:06:51.371Z,10.66
2023-02-19T08:09:20.044Z,10.70
2023-02-19T08:12:06.294Z,10.64
2023-02-19T08:14:34.902Z,10.59
2023-02-19T08:17:03.574Z,10.78
2023-02-19T08:19:32.171Z,10.81
2023-02-19T08:22:02.130Z,10.89
2023-02-19T08:24:31.276Z,11.16
2023-02-19T08:26:59.801Z,11.18
2023-02-19T08:29:28.624Z,11.00
2023-02-19T08:31:57.236Z,11.11
2023-02-19T08:34:26.029Z,11.15
2023-02-19T08:36:54.573Z,11.10
2023-02-19T08:39:24.693Z,10.97
2023-02-19T08:41:53.372Z,10.93
2023-02-19T08:44:22.232Z,10.90
2023-02-19T08:46:50.896Z,11.09
2023-02-19T08:49:19.560Z,11.03
2023-02-19T08:51:48.730Z,11.07
2023-02-19T08:54:17.516Z,11.17
2023-02-19T08:56:47.509Z,11.21
2023-02-19T08:59:16.280Z,11.28
2023-02-19T09:01:44.928Z,11.31
2023-02-19T09:04:16.223Z,11.22
2023-02-19T09:06:44.864Z,11.03
2023-02-19T09:09:13.520Z,10.79
2023-02-19T09:11:42.391Z,10.90
2023-02-19T09:14:12.475Z,11.08
2023-02-19T09:16:41.148Z,10.96
2023-02-19T09:19:10.048Z,10.89
2023-02-19T09:21:38.656Z,11.03
2023-02-19T09:24:09.773Z,10.98
2023-02-19T09:26:39.495Z,11.10
2023-02-19T09:29:08.177Z,11.33
2023-02-19T09:31:38.179Z,11.15
2023-02-19T09:34:07.872Z,11.19
2023-02-19T09:36:36.593Z,11.31
2023-02-19T09:39:07.757Z,11.33
2023-02-19T09:41:45.218Z,11.52
2023-02-19T09:44:19.673Z,11.31
2023-02-19T09:46:53.186Z,11.26
2023-02-19T09:49:28.458Z,11.19
2023-02-19T09:52:03.076Z,11.05
2023-02-19T09:54:33.405Z,11.19
2023-02-19T09:57:04.615Z,11.14
2023-02-19T09:59:45.665Z,11.13
2023-02-19T10:02:21.827Z,11.16
2023-02-19T10:04:53.204Z,11.17
2023-02-19T10:07:25.903Z,11.39
2023-02-19T10:10:01.055Z,11.54
2023-02-19T10:12:34.607Z,11.60
2023-02-19T10:15:13.793Z,11.66
2023-02-19T10:17:44.186Z,11.64
2023-02-19T10:20:17.323Z,11.69
2023-02-19T10:22:47.044Z,11.69
2023-02-19T10:25:18.023Z,11.82
2023-02-19T10:27:46.799Z,11.89
2023-02-19T10:30:22.700Z,11.98
2023-02-19T10:33:05.450Z,12.02
2023-02-19T10:35:40.232Z,12.07
2023-02-19T10:38:09.096Z,11.78
2023-02-19T10:40:44.569Z,11.94
2023-02-19T10:43:31.610Z,12.05
2023-02-19T10:46:06.042Z,11.98
2023-02-19T10:48:41.783Z,12.05
2023-02-19T10:51:21.769Z,12.13
2023-02-19T10:54:03.673Z,11.76
2023-02-19T10:56:33.722Z,11.84
2023-02-19T10:59:25.270Z,11.77
2023-02-19T11:01:59.753Z,11.46
2023-02-19T11:04:35.174Z,11.65
2023-02-19T11:07:11.798Z,11.54
2023-02-19T11:09:45.399Z,11.57
2023-02-19T11:12:24.347Z,11.54
2023-02-19T11:14:53.339Z,11.72
2023-02-19T11:17:26.383Z,11.82
2023-02-19T11:19:59.776Z,12.03
2023-02-19T11:22:33.596Z,11.87
2023-02-19T11:25:08.871Z,12.00
2023-02-19T11:27:54.314Z,12.20
2023-02-19T11:30:37.158Z,12.09
2023-02-19T11:33:25.473Z,11.80
2023-02-19T11:36:22.602Z,11.63
2023-02-19T11:38:51.945Z,11.68
2023-02-19T11:41:44.498Z,11.66
2023-02-19T11:44:33.092Z,11.73
2023-02-19T11:47:43.409Z,11.63
2023-02-19T11:50:25.516Z,11.53
2023-02-19T11:53:16.981Z,11.44
2023-02-19T11:56:08.458Z,11.56
2023-02-19T11:59:04.889Z,11.70
2023-02-19T12:02:29.225Z,11.92
2023-02-19T12:05:33.881Z,12.03
2023-02-19T12:08:57.785Z,11.64
2023-02-19T12:11:53.602Z,11.82
2023-02-19T12:15:10.085Z,11.77
2023-02-19T12:18:03.014Z,11.77
2023-02-19T12:20:45.621Z,11.91
2023-02-19T12:24:03.450Z,12.34
2023-02-19T12:26:43.969Z,12.69
2023-02-19T12:29:39.560Z,13.66
2023-02-19T12:32:38.471Z,14.07
2023-02-19T12:35:48.273Z,13.83
2023-02-19T12:38:32.484Z,13.18
2023-02-19T12:41:31.588Z,13.38
2023-02-19T12:44:05.417Z,13.60
2023-02-19T12:46:39.822Z,13.58
2023-02-19T12:49:17.190Z,13.69
2023-02-19T12:51:50.888Z,13.35
2023-02-19T12:54:26.282Z,13.50
2023-02-19T12:57:03.966Z,13.20
2023-02-19T12:59:38.647Z,12.97
2023-02-19T13:02:19.367Z,12.27
2023-02-19T13:05:01.243Z,11.95
2023-02-19T13:07:39.884Z,11.47
2023-02-19T13:10:33.438Z,11.37
2023-02-19T13:13:13.633Z,11.27
2023-02-19T13:15:48.520Z,11.52
2023-02-19T13:18:23.462Z,11.75
2023-02-19T13:20:55.386Z,11.93
2023-02-19T13:23:47.276Z,12.10
2023-02-19T13:26:55.021Z,12.88
2023-02-19T13:29:51.410Z,13.21
2023-02-19T13:32:53.447Z,12.58
2023-02-19T13:35:53.733Z,12.52
2023-02-19T13:38:23.293Z,12.76
2023-02-19T13:40:59.077Z,12.61
2023-02-19T13:43:34.797Z,12.40
2023-02-19T13:46:09.900Z,12.59
2023-02-19T13:48:41.913Z,12.71
2023-02-19T13:51:51.428Z,12.32
2023-02-19T13:54:28.906Z,12.23
2023-02-19T13:57:29.922Z,12.76
2023-02-19T14:00:00.149Z,12.91
2023-02-19T14:02:35.131Z,13.06
2023-02-19T14:05:08.479Z,13.16
2023-02-19T14:07:54.961Z,13.32
2023-02-19T14:11:02.050Z,13.29
2023-02-19T14:14:06.640Z,13.05
2023-02-19T14:17:08.441Z,13.37
2023-02-19T14:19:56.156Z,12.79
2023-02-19T14:23:12.037Z,12.52
2023-02-19T14:26:04.264Z,12.99
2023-02-19T14:28:45.392Z,13.30
2023-02-19T14:31:25.912Z,13.31
2023-02-19T14:33:57.937Z,13.04
2023-02-19T14:36:51.536Z,12.96
2023-02-19T14:39:30.979Z,12.69
2023-02-19T14:42:03.962Z,12.50
2023-02-19T14:44:48.372Z,12.31
2023-02-19T14:47:23.710Z,12.43
2023-02-19T14:49:59.240Z,12.50
2023-02-19T14:52:39.172Z,12.46
2023-02-19T14:55:16.394Z,12.55
2023-02-19T14:57:49.060Z,12.43
2023-02-19T15:00:28.133Z,12.41
2023-02-19T15:02:59.792Z,12.09
2023-02-19T15:05:32.874Z,11.56
2023-02-19T15:08:08.840Z,11.11
2023-02-19T15:10:40.153Z,11.05
2023-02-19T15:13:17.465Z,11.03
2023-02-19T15:15:47.798Z,11.02
2023-02-19T15:18:22.618Z,11.16
2023-02-19T15:20:59.013Z,11.30
2023-02-19T15:23:32.372Z,11.35
2023-02-19T15:26:01.204Z,11.19
2023-02-19T15:28:35.078Z,11.28
2023-02-19T15:31:16.853Z,11.26
2023-02-19T15:33:53.440Z,11.15
2023-02-19T15:36:30.550Z,11.06
2023-02-19T15:39:03.716Z,10.92
2023-02-19T15:41:36.136Z,10.88
2023-02-19T15:44:30.722Z,10.99
2023-02-19T15:47:09.270Z,10.99
2023-02-19T15:49:47.979Z,10.86
2023-02-19T15:52:28.193Z,10.78
2023-02-19T15:55:08.596Z,10.67
2023-02-19T15:57:45.204Z,10.65
2023-02-19T16:00:22.016Z,10.28
2023-02-19T16:02:51.391Z,10.19
2023-02-19T16:05:28.871Z,10.09
2023-02-19T16:08:17.614Z,10.05
2023-02-19T16:11:02.872Z,9.86
2023-02-19T16:13:35.151Z,9.82
2023-02-19T16:16:17.297Z,9.75
2023-02-19T16:18:48.904Z,9.63
2023-02-19T16:21:22.771Z,9.59
2023-02-19T16:23:59.264Z,9.50
2023-02-19T16:26:29.481Z,9.35
2023-02-19T16:28:58.251Z,9.41
2023-02-19T16:31:27.235Z,9.46
2023-02-19T16:34:18.129Z,9.50
2023-02-19T16:36:49.224Z,9.46
2023-02-19T16:39:27.003Z,9.60
2023-02-19T16:42:24.034Z,9.50
2023-02-19T16:44:52.725Z,9.50
2023-02-19T16:47:33.889Z,9.32
2023-02-19T16:50:08.815Z,9.23
2023-02-19T16:52:39.182Z,9.20
2023-02-19T16:55:14.795Z,9.10
2023-02-19T16:57:45.027Z,9.04
2023-02-19T17:00:19.386Z,8.95
2023-02-19T17:02:49.319Z,8.88
2023-02-19T17:05:20.149Z,8.80
2023-02-19T17:07:49.216Z,8.82
2023-02-19T17:10:21.097Z,8.85
2023-02-19T17:12:51.238Z,8.79
2023-02-19T17:15:20.881Z,8.76
2023-02-19T17:17:49.752Z,8.74
2023-02-19T17:20:28.605Z,8.74
2023-02-19T17:22:57.689Z,8.64
2023-02-19T17:25:26.431Z,8.55
2023-02-19T17:27:57.146Z,8.59
2023-02-19T17:30:31.403Z,8.60
2023-02-19T17:33:00.293Z,8.61
2023-02-19T17:35:29.144Z,8.61
2023-02-19T17:37:57.826Z,8.68
2023-02-19T17:40:33.437Z,8.65
2023-02-19T17:43:03.946Z,8.72
2023-02-19T17:45:33.068Z,8.68
2023-02-19T17:48:02.044Z,8.83
2023-02-19T17:50:33.201Z,8.95
2023-02-19T17:53:01.962Z,8.99
2023-02-19T17:55:30.580Z,9.03
2023-02-19T17:57:59.339Z,9.21
2023-02-19T18:00:32.246Z,9.17
2023-02-19T18:03:01.066Z,9.30
2023-02-19T18:05:30.038Z,9.39
2023-02-19T18:07:59.024Z,9.39
2023-02-19T18:10:27.730Z,9.37
2023-02-19T18:12:56.418Z,9.42
2023-02-19T18:15:28.778Z,9.35
2023-02-19T18:17:58.621Z,9.39
2023-02-19T18:20:31.209Z,9.30
2023-02-19T18:22:59.996Z,9.31
2023-02-19T18:25:28.652Z,9.29
2023-02-19T18:28:00.311Z,9.23
2023-02-19T18:30:30.821Z,9.27
2023-02-19T18:32:59.862Z,9.22
2023-02-19T18:35:28.507Z,9.22
2023-02-19T18:37:57.257Z,9.18
2023-02-19T18:40:26.938Z,9.19
2023-02-19T18:42:56.036Z,9.16
2023-02-19T18:45:24.783Z,9.26
2023-02-19T18:47:54.879Z,9.28
2023-02-19T18:50:23.515Z,9.24
2023-02-19T18:52:53.170Z,9.32
2023-02-19T18:55:22.050Z,9.29
2023-02-19T18:57:50.707Z,9.18
2023-02-19T19:00:25.528Z,9.04
2023-02-19T19:02:59.502Z,8.99
2023-02-19T19:05:28.667Z,8.94
2023-02-19T19:07:59.352Z,9.01
2023-02-19T19:10:28.994Z,8.93
2023-02-19T19:12:58.525Z,9.07
2023-02-19T19:15:27.543Z,9.09
2023-02-19T19:17:57.524Z,8.93
2023-02-19T19:20:26.267Z,8.90
2023-02-19T19:22:55.965Z,8.84
2023-02-19T19:25:24.699Z,8.85
2023-02-19T19:27:57.313Z,8.81
2023-02-19T19:30:26.119Z,8.71
2023-02-19T19:32:55.044Z,8.66
2023-02-19T19:35:25.031Z,8.63
2023-02-19T19:37:53.729Z,8.56
2023-02-19T19:40:22.621Z,8.52
2023-02-19T19:42:53.139Z,8.48
2023-02-19T19:45:22.301Z,8.47
2023-02-19T19:47:51.156Z,8.55
2023-02-19T19:50:20.281Z,8.55
2023-02-19T19:52:50.294Z,8.42
2023-02-19T19:55:21.442Z,8.38
2023-02-19T19:57:50.500Z,8.35
2023-02-19T20:00:20.458Z,8.46
2023-02-19T20:02:49.166Z,8.38
2023-02-19T20:05:18.031Z,8.40
2023-02-19T20:07:46.640Z,8.41
2023-02-19T20:10:19.995Z,8.42
2023-02-19T20:12:49.352Z,8.39
2023-02-19T20:15:22.712Z,8.41
2023-02-19T20:17:51.773Z,8.48
2023-02-19T20:20:22.640Z,8.56
2023-02-19T20:22:52.855Z,8.76
2023-02-19T20:25:24.947Z,8.86
2023-02-19T20:27:54.591Z,8.97
2023-02-19T20:30:25.127Z,8.87
2023-02-19T20:32:54.500Z,9.01
2023-02-19T20:35:26.487Z,9.02
2023-02-19T20:37:55.616Z,9.06
2023-02-19T20:40:27.746Z,9.10
2023-02-19T20:42:56.319Z,9.03
2023-02-19T20:45:25.132Z,9.16
2023-02-19T20:47:53.806Z,9.13
2023-02-19T20:50:23.531Z,9.11
2023-02-19T20:52:53.298Z,9.24
2023-02-19T20:55:23.666Z,9.30
2023-02-19T20:57:53.781Z,9.22
2023-02-19T21:00:23.373Z,9.28
2023-02-19T21:02:52.646Z,9.27
2023-02-19T21:05:21.742Z,9.33
2023-02-19T21:07:50.530Z,9.37
2023-02-19T21:10:19.560Z,9.22
2023-02-19T21:12:50.397Z,9.07
2023-02-19T21:15:21.067Z,9.01
2023-02-19T21:17:49.878Z,9.08
2023-02-19T21:20:18.941Z,9.08
2023-02-19T21:22:47.628Z,8.90
2023-02-19T21:25:16.386Z,8.93
2023-02-19T21:27:45.068Z,8.93
2023-02-19T21:30:14.351Z,8.95
2023-02-19T21:32:44.411Z,8.87
2023-02-19T21:35:13.216Z,8.93
2023-02-19T21:37:44.464Z,8.86
2023-02-19T21:40:14.556Z,8.92
2023-02-19T21:42:43.182Z,8.87
2023-02-19T21:45:11.852Z,8.80
2023-02-19T21:47:40.578Z,8.75
2023-02-19T21:50:11.463Z,8.73
2023-02-19T21:52:40.225Z,8.60
2023-02-19T21:55:09.313Z,8.63
2023-02-19T21:57:37.978Z,8.62
2023-02-19T22:00:08.830Z,8.61
2023-02-19T22:02:37.556Z,8.57
2023-02-19T22:05:07.048Z,8.65
2023-02-19T22:07:37.056Z,8.64
2023-02-19T22:10:06.793Z,8.49
2023-02-19T22:12:35.368Z,8.54
2023-02-19T22:15:04.078Z,8.57
2023-02-19T22:17:32.706Z,8.49
2023-02-19T22:20:01.471Z,8.45
2023-02-19T22:22:30.140Z,8.60
2023-02-19T22:25:00.234Z,8.57
2023-02-19T22:27:30.350Z,8.62
2023-02-19T22:29:59.072Z,8.67
2023-02-19T22:32:27.852Z,8.78
2023-02-19T22:34:56.605Z,8.73
2023-02-19T22:37:25.354Z,8.69
2023-02-19T22:39:54.240Z,8.71
2023-02-19T22:42:25.384Z,8.71
2023-02-19T22:44:54.304Z,8.61
2023-02-19T22:47:22.919Z,8.63
2023-02-19T22:49:51.679Z,8.70
2023-02-19T22:52:20.357Z,8.71
2023-02-19T22:54:49.255Z,8.68
2023-02-19T22:57:17.738Z,8.61
2023-02-19T22:59:47.674Z,8.66
2023-02-19T23:02:16.355Z,8.79
2023-02-19T23:04:45.174Z,8.82
2023-02-19T23:07:13.842Z,8.79
2023-02-19T23:09:42.690Z,8.90
2023-02-19T23:12:12.742Z,8.82
2023-02-19T23:14:41.462Z,8.84
2023-02-19T23:17:11.511Z,8.85
2023-02-19T23:19:40.119Z,8.94
2023-02-19T23:22:08.826Z,9.04
2023-02-19T23:24:37.369Z,9.02
2023-02-19T23:27:05.937Z,8.99
2023-02-19T23:29:34.623Z,9.00
2023-02-19T23:32:03.218Z,8.98
2023-02-19T23:34:33.295Z,8.89
2023-02-19T23:37:02.350Z,8.88
2023-02-19T23:39:31.109Z,8.78
2023-02-19T23:41:59.696Z,8.76
2023-02-19T23:44:28.636Z,8.74
2023-02-19T23:46:57.175Z,8.81
2023-02-19T23:49:25.875Z,8.78
2023-02-19T23:51:55.910Z,8.94
2023-02-19T23:54:24.837Z,8.85
2023-02-19T23:56:53.422Z,8.91
2023-02-19T23:59:22.057Z,8.86
